sensor_id;sensor_type;location;lat;lon;timestamp;temperature;humidity
2387;DHT22;49473;50.772;8.768;2022-08-11T00:01:08;16.90;99.90
2387;DHT22;49473;50.772;8.768;2022-08-11T00:03:42;16.90;99.90
2387;DHT22;49473;50.772;8.768;2022-08-11T00:06:09;16.80;99.90
2387;DHT22;49473;50.772;8.768;2022-08-11T00:08:39;16.70;99.90
2387;DHT22;49473;50.772;8.768;2022-08-11T00:11:08;16.60;99.90
2387;DHT22;49473;50.772;8.768;2022-08-11T00:13:38;16.60;99.90
2387;DHT22;49473;50.772;8.768;2022-08-11T00:16:12;16.60;99.90
2387;DHT22;49473;50.772;8.768;2022-08-11T00:18:43;16.50;99.90
2387;DHT22;49473;50.772;8.768;2022-08-11T00:21:11;16.60;99.90
2387;DHT22;49473;50.772;8.768;2022-08-11T00:23:45;16.60;99.90
2387;DHT22;49473;50.772;8.768;2022-08-11T00:26:15;16.70;99.90
2387;DHT22;49473;50.772;8.768;2022-08-11T00:28:43;16.70;99.90
2387;DHT22;49473;50.772;8.768;2022-08-11T00:31:18;16.60;99.90
2387;DHT22;49473;50.772;8.768;2022-08-11T00:33:48;16.60;99.90
2387;DHT22;49473;50.772;8.768;2022-08-11T00:36:18;16.60;99.90
2387;DHT22;49473;50.772;8.768;2022-08-11T00:38:49;16.40;99.90
2387;DHT22;49473;50.772;8.768;2022-08-11T00:41:27;16.40;99.90
2387;DHT22;49473;50.772;8.768;2022-08-11T00:44:10;16.30;99.90
2387;DHT22;49473;50.772;8.768;2022-08-11T00:46:48;16.30;99.90
2387;DHT22;49473;50.772;8.768;2022-08-11T00:49:34;16.10;99.90
2387;DHT22;49473;50.772;8.768;2022-08-11T00:52:12;16.00;99.90
2387;DHT22;49473;50.772;8.768;2022-08-11T00:58:38;15.90;99.90
2387;DHT22;49473;50.772;8.768;2022-08-11T01:01:20;15.80;99.90
2387;DHT22;49473;50.772;8.768;2022-08-11T01:04:29;15.70;99.90
2387;DHT22;49473;50.772;8.768;2022-08-11T01:07:35;15.60;99.90
2387;DHT22;49473;50.772;8.768;2022-08-11T01:10:22;15.60;99.90
2387;DHT22;49473;50.772;8.768;2022-08-11T01:13:08;15.60;99.90
2387;DHT22;49473;50.772;8.768;2022-08-11T01:16:10;15.60;99.90
2387;DHT22;49473;50.772;8.768;2022-08-11T01:22:17;15.50;99.90
2387;DHT22;49473;50.772;8.768;2022-08-11T01:28:26;15.20;99.90
2387;DHT22;49473;50.772;8.768;2022-08-11T01:31:36;15.20;99.90
2387;DHT22;49473;50.772;8.768;2022-08-11T01:37:11;15.20;99.90
2387;DHT22;49473;50.772;8.768;2022-08-11T01:43:12;15.20;99.90
2387;DHT22;49473;50.772;8.768;2022-08-11T01:46:06;15.10;99.90
2387;DHT22;49473;50.772;8.768;2022-08-11T01:48:41;15.10;99.90
2387;DHT22;49473;50.772;8.768;2022-08-11T01:51:23;15.10;99.90
2387;DHT22;49473;50.772;8.768;2022-08-11T01:54:02;15.10;99.90
2387;DHT22;49473;50.772;8.768;2022-08-11T01:56:41;15.10;99.90
2387;DHT22;49473;50.772;8.768;2022-08-11T01:59:17;15.00;99.90
2387;DHT22;49473;50.772;8.768;2022-08-11T02:02:14;15.00;99.90
2387;DHT22;49473;50.772;8.768;2022-08-11T02:04:52;15.00;99.90
2387;DHT22;49473;50.772;8.768;2022-08-11T02:07:29;15.00;99.90
2387;DHT22;49473;50.772;8.768;2022-08-11T02:10:13;14.90;99.90
2387;DHT22;49473;50.772;8.768;2022-08-11T02:12:59;14.90;99.90
2387;DHT22;49473;50.772;8.768;2022-08-11T02:15:35;14.90;99.90
2387;DHT22;49473;50.772;8.768;2022-08-11T02:18:07;14.80;99.90
2387;DHT22;49473;50.772;8.768;2022-08-11T02:20:42;14.70;99.90
2387;DHT22;49473;50.772;8.768;2022-08-11T02:23:32;14.70;99.90
2387;DHT22;49473;50.772;8.768;2022-08-11T02:26:14;14.70;99.90
2387;DHT22;49473;50.772;8.768;2022-08-11T02:28:56;14.60;99.90
2387;DHT22;49473;50.772;8.768;2022-08-11T02:31:37;14.60;99.90
2387;DHT22;49473;50.772;8.768;2022-08-11T02:37:02;14.40;99.90
2387;DHT22;49473;50.772;8.768;2022-08-11T02:39:48;14.30;99.90
2387;DHT22;49473;50.772;8.768;2022-08-11T02:42:25;14.30;99.90
2387;DHT22;49473;50.772;8.768;2022-08-11T02:45:07;14.20;99.90
2387;DHT22;49473;50.772;8.768;2022-08-11T02:47:42;14.20;99.90
2387;DHT22;49473;50.772;8.768;2022-08-11T02:50:38;14.20;99.90
2387;DHT22;49473;50.772;8.768;2022-08-11T02:53:10;14.10;99.90
2387;DHT22;49473;50.772;8.768;2022-08-11T02:55:46;14.10;99.90
2387;DHT22;49473;50.772;8.768;2022-08-11T02:58:29;14.10;99.90
2387;DHT22;49473;50.772;8.768;2022-08-11T03:01:05;14.00;99.90
2387;DHT22;49473;50.772;8.768;2022-08-11T03:03:46;14.00;99.90
2387;DHT22;49473;50.772;8.768;2022-08-11T03:06:23;14.00;99.90
2387;DHT22;49473;50.772;8.768;2022-08-11T03:08:55;14.00;99.90
2387;DHT22;49473;50.772;8.768;2022-08-11T03:11:38;14.00;99.90
2387;DHT22;49473;50.772;8.768;2022-08-11T03:14:30;13.90;99.90
2387;DHT22;49473;50.772;8.768;2022-08-11T03:17:24;13.80;99.90
2387;DHT22;49473;50.772;8.768;2022-08-11T03:20:02;13.70;99.90
2387;DHT22;49473;50.772;8.768;2022-08-11T03:22:35;13.70;99.90
2387;DHT22;49473;50.772;8.768;2022-08-11T03:25:08;13.70;99.90
2387;DHT22;49473;50.772;8.768;2022-08-11T03:27:47;13.70;99.90
2387;DHT22;49473;50.772;8.768;2022-08-11T03:30:22;13.70;99.90
2387;DHT22;49473;50.772;8.768;2022-08-11T03:33:05;13.70;99.90
2387;DHT22;49473;50.772;8.768;2022-08-11T03:36:04;13.60;99.90
2387;DHT22;49473;50.772;8.768;2022-08-11T03:38:45;13.50;99.90
2387;DHT22;49473;50.772;8.768;2022-08-11T03:41:22;13.40;99.90
2387;DHT22;49473;50.772;8.768;2022-08-11T03:44:24;13.40;99.90
2387;DHT22;49473;50.772;8.768;2022-08-11T03:47:17;13.30;99.90
2387;DHT22;49473;50.772;8.768;2022-08-11T03:49:59;13.30;99.90
2387;DHT22;49473;50.772;8.768;2022-08-11T03:52:43;13.30;99.90
2387;DHT22;49473;50.772;8.768;2022-08-11T03:55:18;13.40;99.90
2387;DHT22;49473;50.772;8.768;2022-08-11T03:58:14;13.30;99.90
2387;DHT22;49473;50.772;8.768;2022-08-11T04:04:29;13.20;99.90
2387;DHT22;49473;50.772;8.768;2022-08-11T04:10:36;13.10;99.90
2387;DHT22;49473;50.772;8.768;2022-08-11T04:16:46;13.10;99.90
2387;DHT22;49473;50.772;8.768;2022-08-11T04:19:45;13.10;99.90
2387;DHT22;49473;50.772;8.768;2022-08-11T04:25:55;13.10;99.90
2387;DHT22;49473;50.772;8.768;2022-08-11T04:28:54;13.00;99.90
2387;DHT22;49473;50.772;8.768;2022-08-11T04:31:37;13.00;99.90
2387;DHT22;49473;50.772;8.768;2022-08-11T04:40:26;13.00;99.90
2387;DHT22;49473;50.772;8.768;2022-08-11T04:43:45;13.00;99.90
2387;DHT22;49473;50.772;8.768;2022-08-11T04:49:30;13.20;99.90
2387;DHT22;49473;50.772;8.768;2022-08-11T04:52:33;13.20;99.90
2387;DHT22;49473;50.772;8.768;2022-08-11T04:55:40;13.30;99.90
2387;DHT22;49473;50.772;8.768;2022-08-11T04:58:43;13.40;99.90
2387;DHT22;49473;50.772;8.768;2022-08-11T05:01:39;13.40;99.90
2387;DHT22;49473;50.772;8.768;2022-08-11T05:04:20;13.50;99.90
2387;DHT22;49473;50.772;8.768;2022-08-11T05:10:18;13.70;99.90
2387;DHT22;49473;50.772;8.768;2022-08-11T05:12:54;13.80;99.90
2387;DHT22;49473;50.772;8.768;2022-08-11T05:15:30;14.00;99.90
2387;DHT22;49473;50.772;8.768;2022-08-11T05:18:21;14.10;99.90
2387;DHT22;49473;50.772;8.768;2022-08-11T05:21:09;14.20;99.90
2387;DHT22;49473;50.772;8.768;2022-08-11T05:24:02;14.20;99.90
2387;DHT22;49473;50.772;8.768;2022-08-11T05:26:49;14.40;99.90
2387;DHT22;49473;50.772;8.768;2022-08-11T05:29:42;14.50;99.90
2387;DHT22;49473;50.772;8.768;2022-08-11T05:32:34;14.70;99.90
2387;DHT22;49473;50.772;8.768;2022-08-11T05:35:25;14.90;99.90
2387;DHT22;49473;50.772;8.768;2022-08-11T05:37:54;15.10;99.90
2387;DHT22;49473;50.772;8.768;2022-08-11T05:40:47;15.20;99.90
2387;DHT22;49473;50.772;8.768;2022-08-11T05:43:32;15.40;99.90
2387;DHT22;49473;50.772;8.768;2022-08-11T05:46:19;15.60;99.90
2387;DHT22;49473;50.772;8.768;2022-08-11T05:49:08;15.80;99.90
2387;DHT22;49473;50.772;8.768;2022-08-11T05:51:53;16.10;99.90
2387;DHT22;49473;50.772;8.768;2022-08-11T05:54:39;16.30;99.90
2387;DHT22;49473;50.772;8.768;2022-08-11T05:57:29;16.60;99.90
2387;DHT22;49473;50.772;8.768;2022-08-11T05:59:59;16.90;99.90
2387;DHT22;49473;50.772;8.768;2022-08-11T06:02:27;17.30;99.90
2387;DHT22;49473;50.772;8.768;2022-08-11T06:04:56;17.90;99.90
2387;DHT22;49473;50.772;8.768;2022-08-11T06:07:26;18.70;99.90
2387;DHT22;49473;50.772;8.768;2022-08-11T06:09:54;19.10;99.90
2387;DHT22;49473;50.772;8.768;2022-08-11T06:12:27;19.80;99.90
2387;DHT22;49473;50.772;8.768;2022-08-11T06:15:01;20.50;99.90
2387;DHT22;49473;50.772;8.768;2022-08-11T06:17:32;21.30;99.90
2387;DHT22;49473;50.772;8.768;2022-08-11T06:20:03;22.30;99.90
2387;DHT22;49473;50.772;8.768;2022-08-11T06:22:31;22.70;99.90
2387;DHT22;49473;50.772;8.768;2022-08-11T06:25:00;23.10;99.90
2387;DHT22;49473;50.772;8.768;2022-08-11T06:27:30;23.60;99.90
2387;DHT22;49473;50.772;8.768;2022-08-11T06:29:58;23.60;99.90
2387;DHT22;49473;50.772;8.768;2022-08-11T06:32:26;23.90;99.90
2387;DHT22;49473;50.772;8.768;2022-08-11T06:35:18;24.00;99.90
2387;DHT22;49473;50.772;8.768;2022-08-11T06:38:01;24.60;99.90
2387;DHT22;49473;50.772;8.768;2022-08-11T06:40:35;24.90;99.50
2387;DHT22;49473;50.772;8.768;2022-08-11T06:43:09;25.30;98.00
2387;DHT22;49473;50.772;8.768;2022-08-11T06:45:41;25.90;96.60
2387;DHT22;49473;50.772;8.768;2022-08-11T06:48:15;25.90;95.00
2387;DHT22;49473;50.772;8.768;2022-08-11T06:50:49;26.50;94.20
2387;DHT22;49473;50.772;8.768;2022-08-11T06:53:35;26.90;92.40
2387;DHT22;49473;50.772;8.768;2022-08-11T06:56:05;26.80;92.00
2387;DHT22;49473;50.772;8.768;2022-08-11T06:58:50;26.90;90.50
2387;DHT22;49473;50.772;8.768;2022-08-11T07:01:40;26.90;89.30
2387;DHT22;49473;50.772;8.768;2022-08-11T07:04:12;27.60;89.90
2387;DHT22;49473;50.772;8.768;2022-08-11T07:06:50;28.10;86.90
2387;DHT22;49473;50.772;8.768;2022-08-11T07:09:51;28.50;84.40
2387;DHT22;49473;50.772;8.768;2022-08-11T07:12:47;29.00;82.70
2387;DHT22;49473;50.772;8.768;2022-08-11T07:15:36;28.90;79.70
2387;DHT22;49473;50.772;8.768;2022-08-11T07:18:13;29.40;78.40
2387;DHT22;49473;50.772;8.768;2022-08-11T07:21:08;30.30;78.60
2387;DHT22;49473;50.772;8.768;2022-08-11T07:23:58;30.20;75.50
2387;DHT22;49473;50.772;8.768;2022-08-11T07:26:49;30.10;74.80
2387;DHT22;49473;50.772;8.768;2022-08-11T07:29:34;30.70;73.10
2387;DHT22;49473;50.772;8.768;2022-08-11T07:32:17;31.50;71.60
2387;DHT22;49473;50.772;8.768;2022-08-11T07:34:50;31.60;68.70
2387;DHT22;49473;50.772;8.768;2022-08-11T07:37:19;30.60;68.30
2387;DHT22;49473;50.772;8.768;2022-08-11T07:39:48;31.60;68.60
2387;DHT22;49473;50.772;8.768;2022-08-11T07:42:20;32.10;65.80
2387;DHT22;49473;50.772;8.768;2022-08-11T07:44:47;32.10;64.80
2387;DHT22;49473;50.772;8.768;2022-08-11T07:47:34;31.90;66.00
2387;DHT22;49473;50.772;8.768;2022-08-11T07:50:19;32.30;64.60
2387;DHT22;49473;50.772;8.768;2022-08-11T07:53:04;32.10;63.00
2387;DHT22;49473;50.772;8.768;2022-08-11T07:55:32;31.70;64.30
2387;DHT22;49473;50.772;8.768;2022-08-11T07:58:00;32.20;64.90
2387;DHT22;49473;50.772;8.768;2022-08-11T08:00:48;32.60;63.10
2387;DHT22;49473;50.772;8.768;2022-08-11T08:03:33;33.30;63.50
2387;DHT22;49473;50.772;8.768;2022-08-11T08:06:18;33.00;60.20
2387;DHT22;49473;50.772;8.768;2022-08-11T08:09:04;31.90;60.60
2387;DHT22;49473;50.772;8.768;2022-08-11T08:11:51;31.90;62.80
2387;DHT22;49473;50.772;8.768;2022-08-11T08:17:21;31.10;60.90
2387;DHT22;49473;50.772;8.768;2022-08-11T08:20:10;31.00;62.70
2387;DHT22;49473;50.772;8.768;2022-08-11T08:22:37;31.10;62.80
2387;DHT22;49473;50.772;8.768;2022-08-11T08:25:06;31.20;61.50
2387;DHT22;49473;50.772;8.768;2022-08-11T08:27:35;31.30;62.70
2387;DHT22;49473;50.772;8.768;2022-08-11T08:30:04;30.80;63.20
2387;DHT22;49473;50.772;8.768;2022-08-11T08:32:50;30.30;63.60
2387;DHT22;49473;50.772;8.768;2022-08-11T08:35:18;29.40;64.90
2387;DHT22;49473;50.772;8.768;2022-08-11T08:37:44;28.80;66.60
2387;DHT22;49473;50.772;8.768;2022-08-11T08:40:12;28.10;67.30
2387;DHT22;49473;50.772;8.768;2022-08-11T08:42:45;27.40;68.90
2387;DHT22;49473;50.772;8.768;2022-08-11T08:45:16;27.10;70.40
2387;DHT22;49473;50.772;8.768;2022-08-11T08:47:46;27.20;70.90
2387;DHT22;49473;50.772;8.768;2022-08-11T08:50:16;27.80;69.40
2387;DHT22;49473;50.772;8.768;2022-08-11T08:52:48;28.90;67.80
2387;DHT22;49473;50.772;8.768;2022-08-11T08:55:17;30.50;66.30
2387;DHT22;49473;50.772;8.768;2022-08-11T08:57:48;31.60;63.30
2387;DHT22;49473;50.772;8.768;2022-08-11T09:00:16;31.60;61.90
2387;DHT22;49473;50.772;8.768;2022-08-11T09:02:44;31.40;62.00
2387;DHT22;49473;50.772;8.768;2022-08-11T09:05:16;31.60;60.90
2387;DHT22;49473;50.772;8.768;2022-08-11T09:07:43;32.40;61.40
2387;DHT22;49473;50.772;8.768;2022-08-11T09:10:13;33.60;60.60
2387;DHT22;49473;50.772;8.768;2022-08-11T09:12:41;34.10;58.20
2387;DHT22;49473;50.772;8.768;2022-08-11T09:15:11;34.00;57.30
2387;DHT22;49473;50.772;8.768;2022-08-11T09:17:41;34.60;58.20
2387;DHT22;49473;50.772;8.768;2022-08-11T09:20:12;35.60;56.20
2387;DHT22;49473;50.772;8.768;2022-08-11T09:22:42;34.70;55.90
2387;DHT22;49473;50.772;8.768;2022-08-11T09:25:30;33.80;56.20
2387;DHT22;49473;50.772;8.768;2022-08-11T09:28:15;33.60;56.80
2387;DHT22;49473;50.772;8.768;2022-08-11T09:30:46;33.20;57.00
2387;DHT22;49473;50.772;8.768;2022-08-11T09:33:18;34.20;56.00
2387;DHT22;49473;50.772;8.768;2022-08-11T09:35:46;34.30;56.10
2387;DHT22;49473;50.772;8.768;2022-08-11T09:38:16;35.00;56.10
2387;DHT22;49473;50.772;8.768;2022-08-11T09:41:02;35.90;54.00
2387;DHT22;49473;50.772;8.768;2022-08-11T09:43:31;37.00;54.40
2387;DHT22;49473;50.772;8.768;2022-08-11T09:46:23;37.10;51.10
2387;DHT22;49473;50.772;8.768;2022-08-11T09:48:53;36.10;50.60
2387;DHT22;49473;50.772;8.768;2022-08-11T09:51:22;36.40;50.60
2387;DHT22;49473;50.772;8.768;2022-08-11T09:53:49;37.90;50.30
2387;DHT22;49473;50.772;8.768;2022-08-11T09:56:18;38.30;48.50
2387;DHT22;49473;50.772;8.768;2022-08-11T09:59:11;38.60;48.00
2387;DHT22;49473;50.772;8.768;2022-08-11T10:01:43;38.20;46.90
2387;DHT22;49473;50.772;8.768;2022-08-11T10:04:12;37.40;47.40
2387;DHT22;49473;50.772;8.768;2022-08-11T10:06:42;38.30;47.90
2387;DHT22;49473;50.772;8.768;2022-08-11T10:09:32;39.50;46.80
2387;DHT22;49473;50.772;8.768;2022-08-11T10:12:00;38.50;46.00
2387;DHT22;49473;50.772;8.768;2022-08-11T10:14:29;39.30;47.00
2387;DHT22;49473;50.772;8.768;2022-08-11T10:17:17;40.50;45.60
2387;DHT22;49473;50.772;8.768;2022-08-11T10:19:47;41.20;43.60
2387;DHT22;49473;50.772;8.768;2022-08-11T10:22:15;39.40;43.40
2387;DHT22;49473;50.772;8.768;2022-08-11T10:25:02;38.80;44.80
2387;DHT22;49473;50.772;8.768;2022-08-11T10:27:47;38.90;44.30
2387;DHT22;49473;50.772;8.768;2022-08-11T10:30:19;39.80;43.50
2387;DHT22;49473;50.772;8.768;2022-08-11T10:33:05;40.30;42.70
2387;DHT22;49473;50.772;8.768;2022-08-11T10:35:49;39.30;41.90
2387;DHT22;49473;50.772;8.768;2022-08-11T10:38:17;38.20;42.80
2387;DHT22;49473;50.772;8.768;2022-08-11T10:40:45;38.10;42.30
2387;DHT22;49473;50.772;8.768;2022-08-11T10:43:35;37.60;43.00
2387;DHT22;49473;50.772;8.768;2022-08-11T10:46:02;39.00;42.50
2387;DHT22;49473;50.772;8.768;2022-08-11T10:48:48;39.50;41.70
2387;DHT22;49473;50.772;8.768;2022-08-11T10:51:15;39.60;42.10
2387;DHT22;49473;50.772;8.768;2022-08-11T10:53:44;39.70;42.10
2387;DHT22;49473;50.772;8.768;2022-08-11T10:56:32;39.80;41.70
2387;DHT22;49473;50.772;8.768;2022-08-11T10:59:18;40.90;42.40
2387;DHT22;49473;50.772;8.768;2022-08-11T11:01:45;40.00;40.80
2387;DHT22;49473;50.772;8.768;2022-08-11T11:04:15;40.70;41.30
2387;DHT22;49473;50.772;8.768;2022-08-11T11:06:49;40.30;41.70
2387;DHT22;49473;50.772;8.768;2022-08-11T11:09:21;41.30;42.40
2387;DHT22;49473;50.772;8.768;2022-08-11T11:11:53;42.60;39.90
2387;DHT22;49473;50.772;8.768;2022-08-11T11:14:40;43.40;39.60
2387;DHT22;49473;50.772;8.768;2022-08-11T11:17:31;44.70;38.70
2387;DHT22;49473;50.772;8.768;2022-08-11T11:20:22;43.10;38.10
2387;DHT22;49473;50.772;8.768;2022-08-11T11:22:52;42.00;39.00
2387;DHT22;49473;50.772;8.768;2022-08-11T11:25:21;42.40;38.70
2387;DHT22;49473;50.772;8.768;2022-08-11T11:28:13;42.70;37.10
2387;DHT22;49473;50.772;8.768;2022-08-11T11:30:47;42.60;38.10
2387;DHT22;49473;50.772;8.768;2022-08-11T11:33:23;41.80;38.10
2387;DHT22;49473;50.772;8.768;2022-08-11T11:36:04;41.40;38.60
2387;DHT22;49473;50.772;8.768;2022-08-11T11:38:34;41.40;38.70
2387;DHT22;49473;50.772;8.768;2022-08-11T11:41:01;41.80;38.60
2387;DHT22;49473;50.772;8.768;2022-08-11T11:43:46;42.30;39.50
2387;DHT22;49473;50.772;8.768;2022-08-11T11:46:13;42.50;38.50
2387;DHT22;49473;50.772;8.768;2022-08-11T11:48:41;42.30;37.10
2387;DHT22;49473;50.772;8.768;2022-08-11T11:51:10;40.30;37.40
2387;DHT22;49473;50.772;8.768;2022-08-11T11:53:38;40.40;39.70
2387;DHT22;49473;50.772;8.768;2022-08-11T11:56:08;40.30;39.00
2387;DHT22;49473;50.772;8.768;2022-08-11T11:58:36;41.00;37.50
2387;DHT22;49473;50.772;8.768;2022-08-11T12:01:22;41.00;37.90
2387;DHT22;49473;50.772;8.768;2022-08-11T12:03:51;38.30;38.10
2387;DHT22;49473;50.772;8.768;2022-08-11T12:06:21;37.60;39.00
2387;DHT22;49473;50.772;8.768;2022-08-11T12:08:49;38.80;39.30
2387;DHT22;49473;50.772;8.768;2022-08-11T12:11:18;38.90;39.20
2387;DHT22;49473;50.772;8.768;2022-08-11T12:14:05;39.00;38.70
2387;DHT22;49473;50.772;8.768;2022-08-11T12:16:35;37.70;38.60
2387;DHT22;49473;50.772;8.768;2022-08-11T12:19:05;37.60;39.10
2387;DHT22;49473;50.772;8.768;2022-08-11T12:21:35;37.80;38.90
2387;DHT22;49473;50.772;8.768;2022-08-11T12:24:03;38.90;38.80
2387;DHT22;49473;50.772;8.768;2022-08-11T12:26:48;39.70;38.50
2387;DHT22;49473;50.772;8.768;2022-08-11T12:29:32;41.00;37.40
2387;DHT22;49473;50.772;8.768;2022-08-11T12:31:59;41.00;37.00
2387;DHT22;49473;50.772;8.768;2022-08-11T12:34:27;40.60;37.40
2387;DHT22;49473;50.772;8.768;2022-08-11T12:36:57;40.40;37.50
2387;DHT22;49473;50.772;8.768;2022-08-11T12:39:26;39.80;37.70
2387;DHT22;49473;50.772;8.768;2022-08-11T12:42:10;38.50;37.80
2387;DHT22;49473;50.772;8.768;2022-08-11T12:45:09;37.70;39.20
2387;DHT22;49473;50.772;8.768;2022-08-11T12:48:05;38.60;39.60
2387;DHT22;49473;50.772;8.768;2022-08-11T12:50:54;40.30;37.90
2387;DHT22;49473;50.772;8.768;2022-08-11T12:53:45;40.70;38.10
2387;DHT22;49473;50.772;8.768;2022-08-11T12:56:15;40.70;37.20
2387;DHT22;49473;50.772;8.768;2022-08-11T12:59:14;40.90;37.80
2387;DHT22;49473;50.772;8.768;2022-08-11T13:01:59;39.70;37.20
2387;DHT22;49473;50.772;8.768;2022-08-11T13:04:44;38.50;38.30
2387;DHT22;49473;50.772;8.768;2022-08-11T13:07:20;38.30;39.40
2387;DHT22;49473;50.772;8.768;2022-08-11T13:09:49;39.10;38.90
2387;DHT22;49473;50.772;8.768;2022-08-11T13:12:17;40.10;38.50
2387;DHT22;49473;50.772;8.768;2022-08-11T13:15:02;40.40;38.00
2387;DHT22;49473;50.772;8.768;2022-08-11T13:17:30;39.70;38.20
2387;DHT22;49473;50.772;8.768;2022-08-11T13:19:59;39.90;37.80
2387;DHT22;49473;50.772;8.768;2022-08-11T13:22:28;41.20;38.60
2387;DHT22;49473;50.772;8.768;2022-08-11T13:24:56;41.00;37.30
2387;DHT22;49473;50.772;8.768;2022-08-11T13:27:24;39.80;38.20
2387;DHT22;49473;50.772;8.768;2022-08-11T13:29:51;40.30;37.80
2387;DHT22;49473;50.772;8.768;2022-08-11T13:32:41;39.00;38.30
2387;DHT22;49473;50.772;8.768;2022-08-11T13:35:09;37.20;38.70
2387;DHT22;49473;50.772;8.768;2022-08-11T13:37:40;38.10;39.30
2387;DHT22;49473;50.772;8.768;2022-08-11T13:40:10;39.10;38.30
2387;DHT22;49473;50.772;8.768;2022-08-11T13:42:38;39.10;38.20
2387;DHT22;49473;50.772;8.768;2022-08-11T13:45:07;39.10;37.90
2387;DHT22;49473;50.772;8.768;2022-08-11T13:47:36;38.00;38.10
2387;DHT22;49473;50.772;8.768;2022-08-11T13:50:04;37.70;38.00
2387;DHT22;49473;50.772;8.768;2022-08-11T13:52:33;37.90;38.40
2387;DHT22;49473;50.772;8.768;2022-08-11T13:55:00;38.00;38.60
2387;DHT22;49473;50.772;8.768;2022-08-11T13:57:30;38.70;38.10
2387;DHT22;49473;50.772;8.768;2022-08-11T13:59:59;38.90;37.30
2387;DHT22;49473;50.772;8.768;2022-08-11T14:02:37;38.30;37.20
2387;DHT22;49473;50.772;8.768;2022-08-11T14:05:09;36.30;37.90
2387;DHT22;49473;50.772;8.768;2022-08-11T14:07:38;35.20;39.70
2387;DHT22;49473;50.772;8.768;2022-08-11T14:10:08;35.10;40.10
2387;DHT22;49473;50.772;8.768;2022-08-11T14:12:40;35.30;40.10
2387;DHT22;49473;50.772;8.768;2022-08-11T14:15:29;35.40;40.40
2387;DHT22;49473;50.772;8.768;2022-08-11T14:17:59;34.70;40.40
2387;DHT22;49473;50.772;8.768;2022-08-11T14:20:31;33.60;41.40
2387;DHT22;49473;50.772;8.768;2022-08-11T14:23:24;33.30;42.30
2387;DHT22;49473;50.772;8.768;2022-08-11T14:25:51;33.10;42.40
2387;DHT22;49473;50.772;8.768;2022-08-11T14:28:37;32.70;42.60
2387;DHT22;49473;50.772;8.768;2022-08-11T14:31:05;32.00;42.70
2387;DHT22;49473;50.772;8.768;2022-08-11T14:33:34;31.90;44.30
2387;DHT22;49473;50.772;8.768;2022-08-11T14:36:02;32.00;43.50
2387;DHT22;49473;50.772;8.768;2022-08-11T14:38:32;31.60;43.10
2387;DHT22;49473;50.772;8.768;2022-08-11T14:40:59;31.40;43.40
2387;DHT22;49473;50.772;8.768;2022-08-11T14:43:46;31.30;43.80
2387;DHT22;49473;50.772;8.768;2022-08-11T14:46:31;31.00;43.90
2387;DHT22;49473;50.772;8.768;2022-08-11T14:49:16;30.80;45.50
2387;DHT22;49473;50.772;8.768;2022-08-11T14:51:44;30.80;44.60
2387;DHT22;49473;50.772;8.768;2022-08-11T14:54:11;30.70;45.00
2387;DHT22;49473;50.772;8.768;2022-08-11T14:56:57;30.70;45.00
2387;DHT22;49473;50.772;8.768;2022-08-11T14:59:25;30.50;45.30
2387;DHT22;49473;50.772;8.768;2022-08-11T15:01:52;30.60;45.90
2387;DHT22;49473;50.772;8.768;2022-08-11T15:04:37;30.80;45.70
2387;DHT22;49473;50.772;8.768;2022-08-11T15:07:04;30.90;45.90
2387;DHT22;49473;50.772;8.768;2022-08-11T15:09:32;31.00;45.70
2387;DHT22;49473;50.772;8.768;2022-08-11T15:11:59;31.00;46.00
2387;DHT22;49473;50.772;8.768;2022-08-11T15:14:42;31.00;45.60
2387;DHT22;49473;50.772;8.768;2022-08-11T15:17:28;31.00;45.40
2387;DHT22;49473;50.772;8.768;2022-08-11T15:19:57;30.90;45.60
2387;DHT22;49473;50.772;8.768;2022-08-11T15:22:43;31.10;46.00
2387;DHT22;49473;50.772;8.768;2022-08-11T15:25:28;31.10;45.70
2387;DHT22;49473;50.772;8.768;2022-08-11T15:27:59;30.50;44.90
2387;DHT22;49473;50.772;8.768;2022-08-11T15:30:46;30.40;46.00
2387;DHT22;49473;50.772;8.768;2022-08-11T15:33:34;30.50;46.20
2387;DHT22;49473;50.772;8.768;2022-08-11T15:36:20;30.50;45.80
2387;DHT22;49473;50.772;8.768;2022-08-11T15:39:11;30.10;45.90
2387;DHT22;49473;50.772;8.768;2022-08-11T15:41:42;30.00;45.90
2387;DHT22;49473;50.772;8.768;2022-08-11T15:44:30;30.10;46.30
2387;DHT22;49473;50.772;8.768;2022-08-11T15:47:17;30.10;46.60
2387;DHT22;49473;50.772;8.768;2022-08-11T15:49:50;30.20;46.20
2387;DHT22;49473;50.772;8.768;2022-08-11T15:52:21;30.20;44.90
2387;DHT22;49473;50.772;8.768;2022-08-11T15:54:50;30.00;45.20
2387;DHT22;49473;50.772;8.768;2022-08-11T15:57:19;29.80;45.40
2387;DHT22;49473;50.772;8.768;2022-08-11T16:00:01;29.70;45.80
2387;DHT22;49473;50.772;8.768;2022-08-11T16:02:50;29.70;45.90
2387;DHT22;49473;50.772;8.768;2022-08-11T16:05:35;29.70;46.50
2387;DHT22;49473;50.772;8.768;2022-08-11T16:08:04;29.70;47.20
2387;DHT22;49473;50.772;8.768;2022-08-11T16:10:32;29.70;47.60
2387;DHT22;49473;50.772;8.768;2022-08-11T16:13:02;29.70;47.90
2387;DHT22;49473;50.772;8.768;2022-08-11T16:15:49;29.70;47.30
2387;DHT22;49473;50.772;8.768;2022-08-11T16:18:40;29.60;47.00
2387;DHT22;49473;50.772;8.768;2022-08-11T16:21:10;29.50;47.70
2387;DHT22;49473;50.772;8.768;2022-08-11T16:23:41;29.50;47.10
2387;DHT22;49473;50.772;8.768;2022-08-11T16:26:09;29.40;47.90
2387;DHT22;49473;50.772;8.768;2022-08-11T16:28:37;29.30;47.00
2387;DHT22;49473;50.772;8.768;2022-08-11T16:31:06;29.30;47.50
2387;DHT22;49473;50.772;8.768;2022-08-11T16:33:38;29.40;48.50
2387;DHT22;49473;50.772;8.768;2022-08-11T16:36:06;29.30;47.10
2387;DHT22;49473;50.772;8.768;2022-08-11T16:38:53;29.20;47.10
2387;DHT22;49473;50.772;8.768;2022-08-11T16:41:21;29.10;47.40
2387;DHT22;49473;50.772;8.768;2022-08-11T16:44:03;29.10;47.40
2387;DHT22;49473;50.772;8.768;2022-08-11T16:46:49;29.10;47.30
2387;DHT22;49473;50.772;8.768;2022-08-11T16:49:30;29.00;47.60
2387;DHT22;49473;50.772;8.768;2022-08-11T16:51:57;29.00;48.00
2387;DHT22;49473;50.772;8.768;2022-08-11T16:54:28;29.00;48.90
2387;DHT22;49473;50.772;8.768;2022-08-11T16:56:56;29.10;47.90
2387;DHT22;49473;50.772;8.768;2022-08-11T16:59:45;29.00;47.20
2387;DHT22;49473;50.772;8.768;2022-08-11T17:02:15;28.90;47.40
2387;DHT22;49473;50.772;8.768;2022-08-11T17:05:10;28.90;46.90
2387;DHT22;49473;50.772;8.768;2022-08-11T17:07:57;28.80;46.80
2387;DHT22;49473;50.772;8.768;2022-08-11T17:10:49;28.80;47.30
2387;DHT22;49473;50.772;8.768;2022-08-11T17:13:36;28.80;47.10
2387;DHT22;49473;50.772;8.768;2022-08-11T17:16:08;28.70;46.70
2387;DHT22;49473;50.772;8.768;2022-08-11T17:18:41;28.60;46.80
2387;DHT22;49473;50.772;8.768;2022-08-11T17:21:13;28.60;48.00
2387;DHT22;49473;50.772;8.768;2022-08-11T17:23:42;28.60;46.90
2387;DHT22;49473;50.772;8.768;2022-08-11T17:26:20;28.50;46.90
2387;DHT22;49473;50.772;8.768;2022-08-11T17:28:52;28.50;47.00
2387;DHT22;49473;50.772;8.768;2022-08-11T17:31:22;28.40;46.90
2387;DHT22;49473;50.772;8.768;2022-08-11T17:34:08;28.40;46.60
2387;DHT22;49473;50.772;8.768;2022-08-11T17:36:55;28.40;46.60
2387;DHT22;49473;50.772;8.768;2022-08-11T17:39:24;28.40;46.60
2387;DHT22;49473;50.772;8.768;2022-08-11T17:41:53;28.30;46.80